createdAt,value
2023-04-25T00:01:05.965Z,62.48
2023-04-25T00:03:33.720Z,62.61
2023-04-25T00:06:03.604Z,62.83
2023-04-25T00:08:31.337Z,62.74
2023-04-25T00:10:58.714Z,62.90
2023-04-25T00:13:26.579Z,63.10
2023-04-25T00:15:54.302Z,63.27
2023-04-25T00:18:21.598Z,63.51
2023-04-25T00:20:48.495Z,63.64
2023-04-25T00:23:21.314Z,63.93
2023-04-25T00:25:49.516Z,64.10
2023-04-25T00:28:16.395Z,64.31
2023-04-25T00:30:43.573Z,64.57
2023-04-25T00:33:10.984Z,64.80
2023-04-25T00:35:37.967Z,65.06
2023-04-25T00:38:04.882Z,65.24
2023-04-25T00:40:31.953Z,65.31
2023-04-25T00:42:58.911Z,65.23
2023-04-25T00:45:28.787Z,65.49
2023-04-25T00:47:55.966Z,65.31
2023-04-25T00:50:23.034Z,65.12
2023-04-25T00:52:50.066Z,65.20
2023-04-25T00:55:17.017Z,65.34
2023-04-25T00:57:44.050Z,65.45
2023-04-25T01:00:12.072Z,65.51
2023-04-25T01:02:39.127Z,65.48
2023-04-25T01:05:06.291Z,65.46
2023-04-25T01:07:33.206Z,65.40
2023-04-25T01:10:00.089Z,65.41
2023-04-25T01:12:27.059Z,65.38
2023-04-25T01:14:53.954Z,65.28
2023-04-25T01:17:21.010Z,65.28
2023-04-25T01:19:49.993Z,65.59
2023-04-25T01:22:17.917Z,65.92
2023-04-25T01:24:44.813Z,66.08
2023-04-25T01:27:12.017Z,66.24
2023-04-25T01:29:38.947Z,66.45
2023-04-25T01:33:48.632Z,66.26
2023-04-25T01:36:15.900Z,66.62
2023-04-25T01:38:43.271Z,66.57
2023-04-25T01:41:10.139Z,66.59
2023-04-25T01:46:26.420Z,66.83
2023-04-25T01:48:53.366Z,66.70
2023-04-25T01:51:20.295Z,66.68
2023-04-25T01:53:47.327Z,66.87
2023-04-25T01:56:14.861Z,67.02
2023-04-25T01:58:42.054Z,67.14
2023-04-25T02:01:21.058Z,67.31
2023-04-25T02:03:55.851Z,67.29
2023-04-25T02:06:32.132Z,67.41
2023-04-25T02:08:59.318Z,67.60
2023-04-25T02:11:26.390Z,67.75
2023-04-25T02:14:04.650Z,67.94
2023-04-25T02:16:52.571Z,68.13
2023-04-25T02:19:19.959Z,68.31
2023-04-25T02:21:47.678Z,68.39
2023-04-25T02:24:14.679Z,68.46
2023-04-25T02:26:41.637Z,68.18
2023-04-25T02:29:10.408Z,68.10
2023-04-25T02:31:37.296Z,67.95
2023-04-25T02:34:04.319Z,67.91
2023-04-25T02:36:33.312Z,67.89
2023-04-25T02:39:00.124Z,68.02
2023-04-25T02:41:27.788Z,68.18
2023-04-25T02:43:55.720Z,68.17
2023-04-25T02:46:32.303Z,68.15
2023-04-25T02:49:05.053Z,67.92
2023-04-25T02:51:32.096Z,67.89
2023-04-25T02:53:58.969Z,67.90
2023-04-25T02:56:27.385Z,67.98
2023-04-25T02:58:54.788Z,68.01
2023-04-25T03:01:22.170Z,68.04
2023-04-25T03:03:49.882Z,67.88
2023-04-25T03:06:17.150Z,67.62
2023-04-25T03:08:44.502Z,67.62
2023-04-25T03:11:11.766Z,67.64
2023-04-25T03:13:38.708Z,67.37
2023-04-25T03:16:06.494Z,67.45
2023-04-25T03:18:33.557Z,67.57
2023-04-25T03:21:00.632Z,67.72
2023-04-25T03:23:27.481Z,67.74
2023-04-25T03:25:54.777Z,67.78
2023-04-25T03:28:21.639Z,67.89
2023-04-25T03:30:48.614Z,68.00
2023-04-25T03:33:15.730Z,68.21
2023-04-25T03:35:43.714Z,68.13
2023-04-25T03:38:11.022Z,68.20
2023-04-25T03:40:40.203Z,68.11
2023-04-25T03:43:33.288Z,68.05
2023-04-25T03:46:04.289Z,68.08
2023-04-25T03:48:31.185Z,68.13
2023-04-25T03:50:59.259Z,68.24
2023-04-25T03:53:26.617Z,68.39
2023-04-25T03:56:19.612Z,68.48
2023-04-25T03:58:47.596Z,68.73
2023-04-25T04:01:14.831Z,68.77
2023-04-25T04:03:42.445Z,68.93
2023-04-25T04:06:10.308Z,69.16
2023-04-25T04:08:40.166Z,69.42
2023-04-25T04:11:07.327Z,69.68
2023-04-25T04:13:34.464Z,69.87
2023-04-25T04:16:02.620Z,70.09
2023-04-25T04:18:29.627Z,70.22
2023-04-25T04:20:59.145Z,70.39
2023-04-25T04:23:29.130Z,70.47
2023-04-25T04:25:57.513Z,70.56
2023-04-25T04:28:37.472Z,70.51
2023-04-25T04:31:17.031Z,70.53
2023-04-25T04:36:54.055Z,70.46
2023-04-25T04:39:21.688Z,70.80
2023-04-25T04:41:59.364Z,71.17
2023-04-25T04:44:37.857Z,71.35
2023-04-25T04:47:26.938Z,71.56
2023-04-25T04:50:11.714Z,71.79
2023-04-25T04:53:03.228Z,71.98
2023-04-25T04:55:57.622Z,72.12
2023-04-25T04:58:45.809Z,72.12
2023-04-25T05:01:27.429Z,72.28
2023-04-25T05:04:14.367Z,72.29
2023-04-25T05:07:00.638Z,72.10
2023-04-25T05:09:49.823Z,72.04
2023-04-25T05:12:37.549Z,71.46
2023-04-25T05:15:22.892Z,71.17
2023-04-25T05:17:52.723Z,70.91
2023-04-25T05:20:26.229Z,70.69
2023-04-25T05:23:02.103Z,70.37
2023-04-25T05:25:42.139Z,70.07
2023-04-25T05:28:31.694Z,69.88
2023-04-25T05:31:11.083Z,69.68
2023-04-25T05:33:56.063Z,69.21
2023-04-25T05:36:25.307Z,69.54
2023-04-25T05:38:52.337Z,69.71
2023-04-25T05:41:22.164Z,69.62
2023-04-25T05:43:58.412Z,69.38
2023-04-25T05:46:41.106Z,69.37
2023-04-25T05:49:26.670Z,69.38
2023-04-25T05:51:59.605Z,69.30
2023-04-25T05:54:46.777Z,69.38
2023-04-25T05:57:27.112Z,69.69
2023-04-25T05:59:55.901Z,69.89
2023-04-25T06:02:27.803Z,69.85
2023-04-25T06:04:55.113Z,69.86
2023-04-25T06:07:23.409Z,69.80
2023-04-25T06:09:50.564Z,69.84
2023-04-25T06:12:17.544Z,69.88
2023-04-25T06:14:44.912Z,70.29
2023-04-25T06:17:11.875Z,70.42
2023-04-25T06:19:40.072Z,70.51
2023-04-25T06:22:08.390Z,70.87
2023-04-25T06:24:36.612Z,71.06
2023-04-25T06:27:04.419Z,71.37
2023-04-25T06:29:31.378Z,71.54
2023-04-25T06:31:58.779Z,71.66
2023-04-25T06:34:25.947Z,71.71
2023-04-25T06:36:53.099Z,72.10
2023-04-25T06:39:21.392Z,72.18
2023-04-25T06:41:50.674Z,71.99
2023-04-25T06:44:37.712Z,71.69
2023-04-25T06:47:07.234Z,71.88
2023-04-25T06:49:34.197Z,72.01
2023-04-25T06:52:01.570Z,71.91
2023-04-25T06:54:30.654Z,71.93
2023-04-25T06:57:04.188Z,71.95
2023-04-25T06:59:33.932Z,71.64
2023-04-25T07:02:01.051Z,71.78
2023-04-25T07:04:29.490Z,71.39
2023-04-25T07:06:57.488Z,71.24
2023-04-25T07:09:34.995Z,70.63
2023-04-25T07:12:04.540Z,70.34
2023-04-25T07:14:31.539Z,70.30
2023-04-25T07:16:59.299Z,69.90
2023-04-25T07:19:27.938Z,69.96
2023-04-25T07:21:56.193Z,70.07
2023-04-25T07:24:23.191Z,69.33
2023-04-25T07:26:52.713Z,69.17
2023-04-25T07:29:33.028Z,68.58
2023-04-25T07:32:00.796Z,68.01
2023-04-25T07:34:27.857Z,68.11
2023-04-25T07:36:54.856Z,68.09
2023-04-25T07:39:24.232Z,67.43
2023-04-25T07:41:53.739Z,66.49
2023-04-25T07:44:24.550Z,65.97
2023-04-25T07:46:51.692Z,65.76
2023-04-25T07:49:18.667Z,65.79
2023-04-25T07:51:45.802Z,65.48
2023-04-25T07:54:15.482Z,65.44
2023-04-25T07:56:52.788Z,64.79
2023-04-25T07:59:21.587Z,64.35
2023-04-25T08:01:48.958Z,63.83
2023-04-25T08:04:16.395Z,63.69
2023-04-25T08:06:51.256Z,63.38
2023-04-25T08:09:22.384Z,63.49
2023-04-25T08:11:49.490Z,63.20
2023-04-25T08:14:17.845Z,63.31
2023-04-25T08:16:45.042Z,63.60
2023-04-25T08:19:12.556Z,63.98
2023-04-25T08:21:39.549Z,63.94
2023-04-25T08:24:09.709Z,63.00
2023-04-25T08:26:39.703Z,62.38
2023-04-25T08:29:07.383Z,61.59
2023-04-25T08:31:35.976Z,61.79
2023-04-25T08:34:03.666Z,61.42
2023-04-25T08:36:57.140Z,61.62
2023-04-25T08:39:49.261Z,61.84
2023-04-25T08:42:32.183Z,61.43
2023-04-25T08:44:59.249Z,61.39
2023-04-25T08:47:29.955Z,61.54
2023-04-25T08:49:57.875Z,60.64
2023-04-25T08:52:25.698Z,60.34
2023-04-25T08:54:53.231Z,60.52
2023-04-25T08:57:20.735Z,60.32
2023-04-25T08:59:48.166Z,60.23
2023-04-25T09:02:17.800Z,60.49
2023-04-25T09:04:46.914Z,60.25
2023-04-25T09:07:16.786Z,60.30
2023-04-25T09:09:43.790Z,59.51
2023-04-25T09:12:11.262Z,59.17
2023-04-25T09:14:38.075Z,58.25
2023-04-25T09:17:25.594Z,58.30
2023-04-25T09:19:55.045Z,58.63
2023-04-25T09:22:31.394Z,58.43
2023-04-25T09:24:58.651Z,57.32
2023-04-25T09:27:28.069Z,57.04
2023-04-25T09:30:30.794Z,56.79
2023-04-25T09:33:18.231Z,56.46
2023-04-25T09:35:53.968Z,56.25
2023-04-25T09:38:31.292Z,55.95
2023-04-25T09:41:10.585Z,55.76
2023-04-25T09:43:43.769Z,55.59
2023-04-25T09:46:12.414Z,55.82
2023-04-25T09:48:42.278Z,56.67
2023-04-25T09:51:14.939Z,56.46
2023-04-25T09:53:43.434Z,56.59
2023-04-25T09:56:24.616Z,56.28
2023-04-25T09:58:51.507Z,56.39
2023-04-25T10:01:18.580Z,56.31
2023-04-25T10:03:53.959Z,56.70
2023-04-25T10:06:51.582Z,57.27
2023-04-25T10:09:19.642Z,57.69
2023-04-25T10:11:48.938Z,57.72
2023-04-25T10:14:15.809Z,57.51
2023-04-25T10:16:42.718Z,57.46
2023-04-25T10:19:11.097Z,57.47
2023-04-25T10:21:46.715Z,57.54
2023-04-25T10:24:13.639Z,57.47
2023-04-25T10:26:40.572Z,57.18
2023-04-25T10:29:07.486Z,56.62
2023-04-25T10:31:34.686Z,56.47
2023-04-25T10:34:02.586Z,55.86
2023-04-25T10:36:32.732Z,55.57
2023-04-25T10:39:01.604Z,55.91
2023-04-25T10:41:29.991Z,55.15
2023-04-25T10:44:02.080Z,55.11
2023-04-25T10:46:33.005Z,54.17
2023-04-25T10:49:01.243Z,53.86
2023-04-25T10:51:50.997Z,53.27
2023-04-25T10:54:21.424Z,53.48
2023-04-25T10:56:49.774Z,53.41
2023-04-25T10:59:17.751Z,53.41
2023-04-25T11:01:46.016Z,53.22
2023-04-25T11:04:37.313Z,52.91
2023-04-25T11:07:23.841Z,53.52
2023-04-25T11:09:51.175Z,53.80
2023-04-25T11:12:18.701Z,54.34
2023-04-25T11:14:45.583Z,54.71
2023-04-25T11:17:12.801Z,54.78
2023-04-25T11:19:39.901Z,55.64
2023-04-25T11:22:07.885Z,56.31
2023-04-25T11:24:35.929Z,56.57
2023-04-25T11:27:03.678Z,57.16
2023-04-25T11:29:31.742Z,58.14
2023-04-25T11:32:02.334Z,59.35
2023-04-25T11:34:31.910Z,61.04
2023-04-25T11:36:58.875Z,62.52
2023-04-25T11:39:26.064Z,63.31
2023-04-25T11:41:53.659Z,63.65
2023-04-25T11:44:20.708Z,64.13
2023-04-25T11:46:47.799Z,65.36
2023-04-25T11:49:15.326Z,66.30
2023-04-25T11:51:46.604Z,66.96
2023-04-25T11:54:13.638Z,67.65
2023-04-25T11:56:46.737Z,68.01
2023-04-25T11:59:14.188Z,68.24
2023-04-25T12:01:42.681Z,69.00
2023-04-25T12:04:23.860Z,69.77
2023-04-25T12:06:52.858Z,70.34
2023-04-25T12:09:33.547Z,70.79
2023-04-25T12:12:03.816Z,71.23
2023-04-25T12:14:33.067Z,71.48
2023-04-25T12:17:01.715Z,71.72
2023-04-25T12:19:35.664Z,72.07
2023-04-25T12:22:04.303Z,72.43
2023-04-25T12:24:36.944Z,73.22
2023-04-25T12:27:06.657Z,74.36
2023-04-25T12:29:48.628Z,74.69
2023-04-25T12:32:17.087Z,74.69
2023-04-25T12:34:44.050Z,73.86
2023-04-25T12:37:11.547Z,74.49
2023-04-25T12:39:38.628Z,73.87
2023-04-25T12:42:08.598Z,72.94
2023-04-25T12:44:36.720Z,71.66
2023-04-25T12:47:04.360Z,71.95
2023-04-25T12:49:31.590Z,72.00
2023-04-25T12:51:58.672Z,72.68
2023-04-25T12:54:26.684Z,72.45
2023-04-25T12:56:53.808Z,71.43
2023-04-25T12:59:21.646Z,70.68
2023-04-25T13:01:48.610Z,70.07
2023-04-25T13:04:16.327Z,69.78
2023-04-25T13:06:43.521Z,69.12
2023-04-25T13:09:10.643Z,67.23
2023-04-25T13:11:37.547Z,66.79
2023-04-25T13:14:05.848Z,67.35
2023-04-25T13:16:32.755Z,67.43
2023-04-25T13:19:00.195Z,67.39
2023-04-25T13:21:28.066Z,67.73
2023-04-25T13:23:55.237Z,67.73
2023-04-25T13:26:22.388Z,68.04
2023-04-25T13:28:51.572Z,68.10
2023-04-25T13:31:18.480Z,67.86
2023-04-25T13:33:45.678Z,68.64
2023-04-25T13:36:12.614Z,69.28
2023-04-25T13:38:40.660Z,69.08
2023-04-25T13:41:08.397Z,68.92
2023-04-25T13:43:35.369Z,68.28
2023-04-25T13:46:02.409Z,67.91
2023-04-25T13:48:29.325Z,66.62
2023-04-25T13:50:56.202Z,67.30
2023-04-25T13:53:23.203Z,67.49
2023-04-25T13:55:50.208Z,67.28
2023-04-25T13:58:18.618Z,67.47
2023-04-25T14:03:51.423Z,66.21
2023-04-25T14:06:23.927Z,66.59
2023-04-25T14:08:51.948Z,66.78
2023-04-25T14:11:21.801Z,66.03
2023-04-25T14:13:50.593Z,65.22
2023-04-25T14:16:18.112Z,64.70
2023-04-25T14:18:45.326Z,64.94
2023-04-25T14:21:12.766Z,64.59
2023-04-25T14:23:39.673Z,64.27
2023-04-25T14:26:06.872Z,64.75
2023-04-25T14:28:33.806Z,65.13
2023-04-25T14:31:01.967Z,65.23
2023-04-25T14:33:28.913Z,65.63
2023-04-25T14:35:56.091Z,65.84
2023-04-25T14:38:24.530Z,65.88
2023-04-25T14:40:51.709Z,65.53
2023-04-25T14:43:18.849Z,64.97
2023-04-25T14:45:45.902Z,65.05
2023-04-25T14:48:12.845Z,65.63
2023-04-25T14:50:40.362Z,65.80
2023-04-25T14:53:07.417Z,66.10
2023-04-25T14:55:36.466Z,66.42
2023-04-25T14:58:03.399Z,66.21
2023-04-25T15:00:32.871Z,66.37
2023-04-25T15:03:00.598Z,66.81
2023-04-25T15:05:28.438Z,67.35
2023-04-25T15:07:56.730Z,67.67
2023-04-25T15:10:24.873Z,68.20
2023-04-25T15:12:51.762Z,68.75
2023-04-25T15:15:25.988Z,68.68
2023-04-25T15:17:59.261Z,68.90
2023-04-25T15:20:28.804Z,68.94
2023-04-25T15:22:56.391Z,69.44
2023-04-25T15:25:23.394Z,69.74
2023-04-25T15:27:50.574Z,69.35
2023-04-25T15:30:20.457Z,69.69
2023-04-25T15:32:48.085Z,69.75
2023-04-25T15:35:16.099Z,69.64
2023-04-25T15:37:43.320Z,69.59
2023-04-25T15:40:13.751Z,69.59
2023-04-25T15:42:44.759Z,70.13
2023-04-25T15:45:12.366Z,70.38
2023-04-25T15:47:39.584Z,70.71
2023-04-25T15:50:09.650Z,70.55
2023-04-25T15:52:37.001Z,70.64
2023-04-25T16:02:44.883Z,71.52
2023-04-25T16:05:13.229Z,71.78
2023-04-25T16:07:41.114Z,72.14
2023-04-25T16:10:09.572Z,72.09
2023-04-25T16:12:37.285Z,72.45
2023-04-25T16:15:05.006Z,72.67
2023-04-25T16:17:33.561Z,72.56
2023-04-25T16:20:03.590Z,72.52
2023-04-25T16:22:30.740Z,72.71
2023-04-25T16:24:57.745Z,72.69
2023-04-25T16:27:25.016Z,72.92
2023-04-25T16:29:52.113Z,73.05
2023-04-25T16:32:19.112Z,73.38
2023-04-25T16:34:46.153Z,73.24
2023-04-25T16:37:13.636Z,73.22
2023-04-25T16:39:41.090Z,73.26
2023-04-25T16:42:08.135Z,73.47
2023-04-25T16:44:37.468Z,73.77
2023-04-25T16:47:06.103Z,73.99
2023-04-25T16:49:33.442Z,74.06
2023-04-25T16:52:00.361Z,74.24
2023-04-25T16:54:27.751Z,74.46
2023-04-25T16:56:54.729Z,74.81
2023-04-25T16:59:21.710Z,74.90
2023-04-25T17:01:49.019Z,74.97
2023-04-25T17:04:16.403Z,75.21
2023-04-25T17:06:43.448Z,75.41
2023-04-25T17:09:10.677Z,75.80
2023-04-25T17:11:37.700Z,76.00
2023-04-25T17:14:04.684Z,76.34
2023-04-25T17:16:36.660Z,76.47
2023-04-25T17:19:07.744Z,76.68
2023-04-25T17:21:34.697Z,76.41
2023-04-25T17:24:01.687Z,76.22
2023-04-25T17:26:28.759Z,75.94
2023-04-25T17:28:55.773Z,75.83
2023-04-25T17:31:24.174Z,75.78
2023-04-25T17:33:51.744Z,75.39
2023-04-25T17:36:18.658Z,75.17
2023-04-25T17:38:45.922Z,75.32
2023-04-25T17:41:15.239Z,75.36
2023-04-25T17:43:44.756Z,75.22
2023-04-25T17:46:11.782Z,75.09
2023-04-25T17:48:38.764Z,75.41
2023-04-25T17:51:07.023Z,75.00
2023-04-25T17:53:33.973Z,74.99
2023-04-25T17:56:01.010Z,75.05
2023-04-25T17:58:28.149Z,75.58
2023-04-25T18:00:58.496Z,76.23
2023-04-25T18:03:26.176Z,76.68
2023-04-25T18:05:53.188Z,77.02
2023-04-25T18:08:22.202Z,77.41
2023-04-25T18:10:49.250Z,77.42
2023-04-25T18:13:17.480Z,77.38
2023-04-25T18:15:44.796Z,77.32
2023-04-25T18:18:19.850Z,77.15
2023-04-25T18:20:47.424Z,77.11
2023-04-25T18:23:14.372Z,76.83
2023-04-25T18:25:42.069Z,76.93
2023-04-25T18:28:09.233Z,76.95
2023-04-25T18:30:38.094Z,76.69
2023-04-25T18:33:05.143Z,76.58
2023-04-25T18:35:32.090Z,76.66
2023-04-25T18:37:59.222Z,76.48
2023-04-25T18:40:27.537Z,76.32
2023-04-25T18:42:59.064Z,76.30
2023-04-25T18:45:27.555Z,76.43
2023-04-25T18:47:55.690Z,76.45
2023-04-25T18:50:26.401Z,76.10
2023-04-25T18:52:53.409Z,75.49
2023-04-25T18:55:21.228Z,75.35
2023-04-25T18:57:48.437Z,75.35
2023-04-25T19:00:17.441Z,75.60
2023-04-25T19:02:44.671Z,75.88
2023-04-25T19:05:11.673Z,75.78
2023-04-25T19:07:38.811Z,75.90
2023-04-25T19:10:06.466Z,75.77
2023-04-25T19:12:33.722Z,75.18
2023-04-25T19:15:00.769Z,75.14
2023-04-25T19:17:30.236Z,75.59
2023-04-25T19:19:59.564Z,75.68
2023-04-25T19:22:28.798Z,75.59
2023-04-25T19:25:09.094Z,75.62
2023-04-25T19:27:37.189Z,75.48
2023-04-25T19:30:08.179Z,75.71
2023-04-25T19:32:35.690Z,75.92
2023-04-25T19:35:04.940Z,75.85
2023-04-25T19:37:32.315Z,75.92
2023-04-25T19:39:59.283Z,76.08
2023-04-25T19:42:28.639Z,76.04
2023-04-25T19:44:55.639Z,76.07
2023-04-25T19:47:22.752Z,75.92
2023-04-25T19:49:50.362Z,75.89
2023-04-25T19:52:17.520Z,76.02
2023-04-25T19:54:45.683Z,76.20
2023-04-25T19:57:13.582Z,76.17
2023-04-25T19:59:40.698Z,76.07
2023-04-25T20:02:10.614Z,75.75
2023-04-25T20:04:38.704Z,75.81
2023-04-25T20:07:05.661Z,75.85
2023-04-25T20:09:32.510Z,76.06
2023-04-25T20:11:59.510Z,76.08
2023-04-25T20:14:26.415Z,75.83
2023-04-25T20:16:54.074Z,75.73
2023-04-25T20:19:21.039Z,75.54
2023-04-25T20:21:47.912Z,75.54
2023-04-25T20:24:14.874Z,75.35
2023-04-25T20:26:41.787Z,75.34
2023-04-25T20:29:09.959Z,75.08
2023-04-25T20:31:37.161Z,74.65
2023-04-25T20:34:04.509Z,74.68
2023-04-25T20:36:32.302Z,74.84
2023-04-25T20:38:59.162Z,75.00
2023-04-25T20:41:26.126Z,75.20
2023-04-25T20:43:53.493Z,74.95
2023-04-25T20:46:20.717Z,74.45
2023-04-25T20:48:53.386Z,74.53
2023-04-25T20:51:21.590Z,74.82
2023-04-25T20:53:48.922Z,74.71
2023-04-25T20:56:16.882Z,74.98
2023-04-25T20:58:43.765Z,74.94
2023-04-25T21:01:11.457Z,74.76
2023-04-25T21:03:38.774Z,74.63
2023-04-25T21:06:08.035Z,74.88
2023-04-25T21:08:35.145Z,75.25
2023-04-25T21:11:02.110Z,75.23
2023-04-25T21:13:29.139Z,75.09
2023-04-25T21:15:56.761Z,75.05
2023-04-25T21:18:23.758Z,75.26
2023-04-25T21:20:50.587Z,75.37
2023-04-25T21:23:18.163Z,75.67
2023-04-25T21:25:45.165Z,75.69
2023-04-25T21:28:12.194Z,75.82
2023-04-25T21:30:39.142Z,75.87
2023-04-25T21:33:06.723Z,75.68
2023-04-25T21:35:33.784Z,76.02
2023-04-25T21:38:01.091Z,75.87
2023-04-25T21:40:27.987Z,75.60
2023-04-25T21:42:54.895Z,75.38
2023-04-25T21:45:21.894Z,75.18
2023-04-25T21:47:48.959Z,75.01
2023-04-25T21:50:17.646Z,74.91
2023-04-25T21:52:44.657Z,74.87
2023-04-25T21:55:11.923Z,74.38
2023-04-25T21:57:38.796Z,74.19
2023-04-25T22:00:13.749Z,74.00
2023-04-25T22:02:40.846Z,74.42
2023-04-25T22:05:07.850Z,74.62
2023-04-25T22:07:34.794Z,74.42
2023-04-25T22:10:01.805Z,74.35
2023-04-25T22:12:28.694Z,74.01
2023-04-25T22:14:55.544Z,73.77
2023-04-25T22:17:25.916Z,73.95
2023-04-25T22:19:52.863Z,74.35
2023-04-25T22:22:22.032Z,74.27
2023-04-25T22:24:51.867Z,73.92
2023-04-25T22:27:23.630Z,73.97
2023-04-25T22:29:50.576Z,73.92
2023-04-25T22:32:17.662Z,74.37
2023-04-25T22:34:45.647Z,74.24
2023-04-25T22:37:12.534Z,74.19
2023-04-25T22:39:39.441Z,74.20
2023-04-25T22:42:06.588Z,74.22
2023-04-25T22:44:33.800Z,74.11
2023-04-25T22:47:05.582Z,74.00
2023-04-25T22:49:32.496Z,74.24
2023-04-25T22:51:59.355Z,74.46
2023-04-25T22:54:26.345Z,74.44
2023-04-25T22:56:53.221Z,74.22
2023-04-25T22:59:20.884Z,74.15
2023-04-25T23:01:50.078Z,73.95
2023-04-25T23:04:19.043Z,74.14
2023-04-25T23:06:46.465Z,74.39
2023-04-25T23:09:13.746Z,74.24
2023-04-25T23:11:43.851Z,73.66
2023-04-25T23:14:10.807Z,73.52
2023-04-25T23:16:40.906Z,73.59
2023-04-25T23:19:08.134Z,73.62
2023-04-25T23:21:35.021Z,73.50
2023-04-25T23:24:01.944Z,73.73
2023-04-25T23:26:28.967Z,73.90
2023-04-25T23:28:55.852Z,73.98
2023-04-25T23:31:22.811Z,73.61
2023-04-25T23:33:50.059Z,73.90
2023-04-25T23:36:21.459Z,73.97
2023-04-25T23:38:48.677Z,73.96
2023-04-25T23:41:15.662Z,73.92
2023-04-25T23:43:42.534Z,73.78
2023-04-25T23:46:09.702Z,73.85
2023-04-25T23:48:36.842Z,73.92
2023-04-25T23:51:03.773Z,73.92
2023-04-25T23:53:31.114Z,73.84
2023-04-25T23:55:58.030Z,73.66
2023-04-25T23:58:24.925Z,73.67
